Current Conditions
Mostly Clear
Conditions



Rainfall
0.00 (mm) - 0.00 (in)
Pressure
1009.92 (hPa) - 29.82 (inHG)
Visibility

10.0 (km) - 6.2 (miles)
   Temperature
34  °C
93°F
9  °C
Dewpoint
21  %
 Humidity
   Wind Speed
11  km/h
6  kts
7  mph
3.1  m/s
   Wind Direction
Calm
Due North
   Airport Data
SBPA
Location Salgado Filho 85 km (52.83 mi)
Metar :SBPA 101700Z VRB06KT CAVOK 34/09 Q1010
Tue 10th December 14:00 pm
   Raw Metar Info
Raw METAR is the most common format in the world for the transmission of observational weather data. It is highly standardized through the International Civil Aviation Organization (ICAO), which allows it to be understood throughout most of the world.
   API Info
Data Provided by
https://www.checkwx.com/weather/SBPA
   © Info
CSS/SVG/PHP scripts were developed by weather34.com for use in the weather34 template © 2015-2019

Guide Info provided by Metar-Wikipedia